THY208 LIRF-LTFM
Flight info
| Callsign | THY208 |
|---|---|
| Flight time | 1h 47m |
| Altitude | 37000 |
| Route | OKUNO DCT TINIX DCT ATRUP DCT ENFAR DCT VELBA DCT AYTEK |
| Aircraft | B77W/H-SDE1E2E3FGHIJ2J3J4J5M1RWXY/LB1D1 |
Departure
| Time | 2026-05-06 19:54 |
|---|---|
| Airport | Rome–Fiumicino Leonardo da Vinci International Airport (LIRF) |
Arrival
| Time | 2026-05-06 21:41 |
|---|---|
| Airport | İstanbul Airport (LTFM) |
| Time | Latitude | Longitude | Altitude | Speed | Heading |
|---|---|---|---|---|---|
| 2026-05-06 19:21 | 41.79696 | 12.24878 | 19 ft | 0 kts | 250° |
| 2026-05-06 19:21 | 41.79834 | 12.25173 | 19 ft | 0 kts | 115° |
| 2026-05-06 19:22 | 41.79935 | 12.25317 | 19 ft | 0 kts | 205° |
| 2026-05-06 19:22 | 41.79525 | 12.24103 | 20 ft | 0 kts | 69° |
| 2026-05-06 19:23 | 41.79663 | 12.24634 | 19 ft | 0 kts | 69° |
| 2026-05-06 19:23 | 41.79703 | 12.24622 | 19 ft | 0 kts | 69° |
| 2026-05-06 19:36 | 41.79696 | 12.24594 | 21 ft | 4 kts | 69° |
| 2026-05-06 19:37 | 41.79686 | 12.24560 | 23 ft | 4 kts | 70° |
| 2026-05-06 19:37 | 41.79678 | 12.24532 | 23 ft | 4 kts | 51° |
| 2026-05-06 19:37 | 41.79659 | 12.24518 | 23 ft | 4 kts | 351° |
| 2026-05-06 19:37 | 41.79642 | 12.24523 | 19 ft | 4 kts | 340° |
| 2026-05-06 19:38 | 41.79626 | 12.24531 | 22 ft | 0 kts | 339° |
| 2026-05-06 19:41 | 41.79627 | 12.24531 | 21 ft | 2 kts | 339° |
| 2026-05-06 19:41 | 41.79679 | 12.24505 | 19 ft | 10 kts | 340° |
| 2026-05-06 19:42 | 41.79746 | 12.24472 | 19 ft | 10 kts | 340° |
| 2026-05-06 19:42 | 41.79783 | 12.24453 | 19 ft | 7 kts | 340° |
| 2026-05-06 19:42 | 41.79827 | 12.24431 | 19 ft | 7 kts | 340° |
| 2026-05-06 19:42 | 41.79892 | 12.24400 | 19 ft | 8 kts | 341° |
| 2026-05-06 19:43 | 41.79926 | 12.24382 | 19 ft | 8 kts | 330° |
| 2026-05-06 19:43 | 41.79947 | 12.24314 | 19 ft | 8 kts | 265° |
| 2026-05-06 19:43 | 41.79967 | 12.24243 | 20 ft | 9 kts | 311° |
| 2026-05-06 19:43 | 41.80024 | 12.24236 | 19 ft | 9 kts | 34° |
| 2026-05-06 19:44 | 41.80052 | 12.24312 | 18 ft | 10 kts | 68° |
| 2026-05-06 19:44 | 41.80076 | 12.24396 | 18 ft | 10 kts | 71° |
| 2026-05-06 19:44 | 41.80099 | 12.24481 | 18 ft | 10 kts | 70° |
| 2026-05-06 19:44 | 41.80122 | 12.24566 | 18 ft | 10 kts | 70° |
| 2026-05-06 19:45 | 41.80147 | 12.24656 | 18 ft | 11 kts | 69° |
| 2026-05-06 19:45 | 41.80176 | 12.24758 | 19 ft | 12 kts | 70° |
| 2026-05-06 19:45 | 41.80201 | 12.24871 | 18 ft | 14 kts | 79° |
| 2026-05-06 19:45 | 41.80205 | 12.25001 | 18 ft | 15 kts | 91° |
| 2026-05-06 19:46 | 41.80225 | 12.25137 | 18 ft | 16 kts | 71° |
| 2026-05-06 19:46 | 41.80263 | 12.25278 | 19 ft | 16 kts | 70° |
| 2026-05-06 19:46 | 41.80301 | 12.25418 | 20 ft | 16 kts | 69° |
| 2026-05-06 19:46 | 41.80340 | 12.25561 | 20 ft | 17 kts | 70° |
| 2026-05-06 19:47 | 41.80383 | 12.25714 | 21 ft | 18 kts | 70° |
| 2026-05-06 19:47 | 41.80428 | 12.25879 | 20 ft | 19 kts | 70° |
| 2026-05-06 19:47 | 41.80469 | 12.26025 | 20 ft | 17 kts | 70° |
| 2026-05-06 19:47 | 41.80511 | 12.26176 | 24 ft | 17 kts | 70° |
| 2026-05-06 19:48 | 41.80553 | 12.26331 | 23 ft | 18 kts | 70° |
| 2026-05-06 19:48 | 41.80597 | 12.26492 | 22 ft | 19 kts | 70° |
| 2026-05-06 19:48 | 41.80642 | 12.26656 | 20 ft | 19 kts | 70° |
| 2026-05-06 19:48 | 41.80689 | 12.26827 | 19 ft | 20 kts | 70° |
| 2026-05-06 19:49 | 41.80738 | 12.27006 | 18 ft | 20 kts | 69° |
| 2026-05-06 19:49 | 41.80783 | 12.27126 | 18 ft | 11 kts | 34° |
| 2026-05-06 19:49 | 41.80860 | 12.27118 | 18 ft | 12 kts | 341° |
| 2026-05-06 19:49 | 41.80882 | 12.27108 | 17 ft | 0 kts | 340° |
| 2026-05-06 19:52 | 41.80916 | 12.27091 | 18 ft | 9 kts | 340° |
| 2026-05-06 19:52 | 41.80965 | 12.27068 | 18 ft | 5 kts | 340° |
| 2026-05-06 19:52 | 41.80988 | 12.27036 | 18 ft | 5 kts | 279° |
| 2026-05-06 19:53 | 41.80985 | 12.27023 | 18 ft | 0 kts | 247° |
| 2026-05-06 19:53 | 41.80945 | 12.26881 | 18 ft | 49 kts | 250° |
| 2026-05-06 19:53 | 41.80725 | 12.26084 | 27 ft | 130 kts | 249° |
| 2026-05-06 19:54 | 41.80330 | 12.24657 | 49 ft | 189 kts | 246° |
| 2026-05-06 19:54 | 41.79853 | 12.22919 | 549 ft | 205 kts | 246° |
| 2026-05-06 19:54 | 41.79361 | 12.21298 | 1728 ft | 180 kts | 234° |
| 2026-05-06 19:54 | 41.78495 | 12.20120 | 2236 ft | 185 kts | 216° |
| 2026-05-06 19:55 | 41.77429 | 12.18945 | 2460 ft | 212 kts | 217° |
| 2026-05-06 19:55 | 41.76232 | 12.17607 | 2884 ft | 228 kts | 215° |
| 2026-05-06 19:55 | 41.74770 | 12.16810 | 3507 ft | 232 kts | 184° |
| 2026-05-06 19:55 | 41.73127 | 12.16843 | 4134 ft | 243 kts | 178° |
| 2026-05-06 19:56 | 41.71442 | 12.16925 | 4993 ft | 244 kts | 178° |
| 2026-05-06 19:56 | 41.69755 | 12.17013 | 6154 ft | 245 kts | 178° |
| 2026-05-06 19:56 | 41.68020 | 12.17104 | 7219 ft | 255 kts | 179° |
| 2026-05-06 19:56 | 41.66225 | 12.17193 | 8325 ft | 259 kts | 178° |
| 2026-05-06 19:57 | 41.64406 | 12.17284 | 9519 ft | 262 kts | 177° |
| 2026-05-06 19:57 | 41.62574 | 12.17373 | 10622 ft | 268 kts | 178° |
| 2026-05-06 19:57 | 41.60639 | 12.17464 | 11269 ft | 292 kts | 178° |
| 2026-05-06 19:57 | 41.58487 | 12.17565 | 11564 ft | 329 kts | 179° |
| 2026-05-06 19:58 | 41.56110 | 12.17893 | 11702 ft | 360 kts | 165° |
| 2026-05-06 19:58 | 41.53791 | 12.19340 | 12484 ft | 373 kts | 146° |
| 2026-05-06 19:58 | 41.51902 | 12.21726 | 13630 ft | 379 kts | 129° |
| 2026-05-06 19:58 | 41.50654 | 12.24864 | 14575 ft | 392 kts | 110° |
| 2026-05-06 19:59 | 41.50238 | 12.28520 | 15467 ft | 406 kts | 91° |
| 2026-05-06 19:59 | 41.50727 | 12.32219 | 16329 ft | 417 kts | 72° |
| 2026-05-06 19:59 | 41.51988 | 12.35812 | 17197 ft | 429 kts | 59° |
| 2026-05-06 19:59 | 41.53789 | 12.39041 | 18004 ft | 437 kts | 50° |
| 2026-05-06 20:00 | 41.55831 | 12.42019 | 18720 ft | 444 kts | 46° |
| 2026-05-06 20:00 | 41.58007 | 12.44978 | 19443 ft | 450 kts | 45° |
| 2026-05-06 20:00 | 41.60220 | 12.47971 | 20184 ft | 455 kts | 45° |
| 2026-05-06 20:00 | 41.62438 | 12.51034 | 20907 ft | 461 kts | 46° |
| 2026-05-06 20:01 | 41.64648 | 12.54164 | 21604 ft | 467 kts | 46° |
| 2026-05-06 20:01 | 41.66867 | 12.57376 | 22279 ft | 473 kts | 47° |
| 2026-05-06 20:01 | 41.69096 | 12.60647 | 22986 ft | 479 kts | 47° |
| 2026-05-06 20:01 | 41.71343 | 12.63969 | 23674 ft | 484 kts | 47° |
| 2026-05-06 20:02 | 41.73615 | 12.67343 | 24286 ft | 489 kts | 47° |
| 2026-05-06 20:02 | 41.75907 | 12.70750 | 24844 ft | 494 kts | 47° |
| 2026-05-06 20:02 | 41.78221 | 12.74192 | 25397 ft | 500 kts | 47° |
| 2026-05-06 20:02 | 41.80556 | 12.77667 | 25937 ft | 505 kts | 47° |
| 2026-05-06 20:03 | 41.82882 | 12.81130 | 26461 ft | 509 kts | 47° |
| 2026-05-06 20:03 | 41.85263 | 12.84676 | 26979 ft | 514 kts | 47° |
| 2026-05-06 20:03 | 41.87673 | 12.88269 | 27474 ft | 520 kts | 48° |
| 2026-05-06 20:03 | 41.90105 | 12.91900 | 27969 ft | 524 kts | 48° |
| 2026-05-06 20:04 | 41.92551 | 12.95556 | 28419 ft | 528 kts | 48° |
| 2026-05-06 20:04 | 41.95014 | 12.99242 | 28863 ft | 533 kts | 48° |
| 2026-05-06 20:04 | 41.97498 | 13.02966 | 29285 ft | 537 kts | 48° |
| 2026-05-06 20:04 | 41.99999 | 13.06718 | 29682 ft | 541 kts | 48° |
| 2026-05-06 20:05 | 42.02519 | 13.10503 | 30035 ft | 545 kts | 48° |
| 2026-05-06 20:05 | 42.05047 | 13.14304 | 30483 ft | 545 kts | 48° |
| 2026-05-06 20:05 | 42.07536 | 13.18055 | 30996 ft | 544 kts | 48° |
| 2026-05-06 20:05 | 42.10050 | 13.21848 | 31470 ft | 542 kts | 48° |
| 2026-05-06 20:06 | 42.12563 | 13.25644 | 31956 ft | 542 kts | 49° |
| 2026-05-06 20:06 | 42.15065 | 13.29429 | 32448 ft | 541 kts | 48° |
| 2026-05-06 20:06 | 42.17569 | 13.33220 | 32880 ft | 541 kts | 49° |
| 2026-05-06 20:06 | 42.20078 | 13.37023 | 33322 ft | 541 kts | 49° |
| 2026-05-06 20:07 | 42.22574 | 13.40813 | 33835 ft | 539 kts | 49° |
| 2026-05-06 20:07 | 42.25060 | 13.44592 | 34269 ft | 538 kts | 49° |
| 2026-05-06 20:07 | 42.27541 | 13.48368 | 34691 ft | 536 kts | 48° |
| 2026-05-06 20:07 | 42.30008 | 13.52127 | 35145 ft | 533 kts | 48° |
| 2026-05-06 20:08 | 42.32265 | 13.56068 | 35484 ft | 530 kts | 60° |
| 2026-05-06 20:08 | 42.33775 | 13.60587 | 35777 ft | 527 kts | 75° |
| 2026-05-06 20:08 | 42.34538 | 13.65330 | 36151 ft | 520 kts | 88° |
| 2026-05-06 20:08 | 42.34551 | 13.70160 | 36502 ft | 510 kts | 99° |
| 2026-05-06 20:09 | 42.34240 | 13.74953 | 36735 ft | 512 kts | 99° |
| 2026-05-06 20:09 | 42.33913 | 13.79749 | 36927 ft | 515 kts | 99° |
| 2026-05-06 20:09 | 42.33289 | 13.89425 | 36929 ft | 516 kts | 98° |
| 2026-05-06 20:10 | 42.32727 | 13.99025 | 36942 ft | 510 kts | 98° |
| 2026-05-06 20:10 | 42.32187 | 14.08583 | 36942 ft | 510 kts | 98° |
| 2026-05-06 20:11 | 42.31642 | 14.18145 | 36943 ft | 511 kts | 98° |
| 2026-05-06 20:11 | 42.31083 | 14.27731 | 36939 ft | 512 kts | 98° |
| 2026-05-06 20:12 | 42.30516 | 14.37322 | 36943 ft | 512 kts | 98° |
| 2026-05-06 20:12 | 42.29942 | 14.46847 | 36940 ft | 512 kts | 98° |
| 2026-05-06 20:13 | 42.29358 | 14.56442 | 36940 ft | 512 kts | 98° |
| 2026-05-06 20:13 | 42.28765 | 14.66046 | 36939 ft | 513 kts | 98° |
| 2026-05-06 20:14 | 42.28165 | 14.75634 | 36937 ft | 513 kts | 98° |
| 2026-05-06 20:14 | 42.27554 | 14.85244 | 36927 ft | 513 kts | 98° |
| 2026-05-06 20:15 | 42.26941 | 14.94788 | 36932 ft | 513 kts | 98° |
| 2026-05-06 20:15 | 42.26312 | 15.04436 | 36931 ft | 512 kts | 98° |
| 2026-05-06 20:16 | 42.25680 | 15.14005 | 36931 ft | 512 kts | 98° |
| 2026-05-06 20:16 | 42.25049 | 15.23454 | 36928 ft | 511 kts | 98° |
| 2026-05-06 20:17 | 42.24402 | 15.33007 | 36935 ft | 511 kts | 98° |
| 2026-05-06 20:17 | 42.23757 | 15.42418 | 36938 ft | 512 kts | 98° |
| 2026-05-06 20:18 | 42.23093 | 15.51977 | 36946 ft | 512 kts | 98° |
| 2026-05-06 20:18 | 42.22421 | 15.61555 | 36945 ft | 512 kts | 98° |
| 2026-05-06 20:19 | 42.21740 | 15.71132 | 36959 ft | 513 kts | 98° |
| 2026-05-06 20:19 | 42.21050 | 15.80729 | 36965 ft | 514 kts | 98° |
| 2026-05-06 20:20 | 42.20351 | 15.90336 | 36971 ft | 514 kts | 98° |
| 2026-05-06 20:20 | 42.19644 | 15.99947 | 36964 ft | 515 kts | 98° |
| 2026-05-06 20:21 | 42.18928 | 16.09559 | 36963 ft | 516 kts | 98° |
| 2026-05-06 20:21 | 42.18208 | 16.19121 | 36968 ft | 516 kts | 98° |
| 2026-05-06 20:22 | 42.17475 | 16.28750 | 36974 ft | 516 kts | 98° |
| 2026-05-06 20:22 | 42.16734 | 16.38371 | 36974 ft | 516 kts | 98° |
| 2026-05-06 20:23 | 42.15984 | 16.47996 | 36977 ft | 517 kts | 98° |
| 2026-05-06 20:23 | 42.15226 | 16.57630 | 36982 ft | 517 kts | 98° |
| 2026-05-06 20:24 | 42.14460 | 16.67259 | 36984 ft | 516 kts | 98° |
| 2026-05-06 20:24 | 42.13686 | 16.76880 | 36990 ft | 516 kts | 98° |
| 2026-05-06 20:25 | 42.12904 | 16.86497 | 36994 ft | 517 kts | 98° |
| 2026-05-06 20:25 | 42.12114 | 16.96111 | 37002 ft | 517 kts | 98° |
| 2026-05-06 20:26 | 42.11315 | 17.05736 | 37002 ft | 517 kts | 98° |
| 2026-05-06 20:26 | 42.10509 | 17.15355 | 37006 ft | 517 kts | 98° |
| 2026-05-06 20:27 | 42.09693 | 17.24984 | 37009 ft | 517 kts | 98° |
| 2026-05-06 20:27 | 42.09009 | 17.32988 | 37012 ft | 517 kts | 98° |
| 2026-05-06 20:28 | 42.08178 | 17.42610 | 37018 ft | 518 kts | 98° |
| 2026-05-06 20:28 | 42.07203 | 17.53796 | 37022 ft | 518 kts | 98° |
| 2026-05-06 20:29 | 42.06356 | 17.63407 | 37029 ft | 517 kts | 98° |
| 2026-05-06 20:29 | 42.05501 | 17.73014 | 37038 ft | 517 kts | 98° |
| 2026-05-06 20:30 | 42.04350 | 17.85801 | 37042 ft | 517 kts | 98° |
| 2026-05-06 20:31 | 42.03476 | 17.95407 | 37041 ft | 517 kts | 98° |
| 2026-05-06 20:31 | 42.02809 | 18.05057 | 37058 ft | 522 kts | 91° |
| 2026-05-06 20:32 | 42.02928 | 18.16596 | 37057 ft | 532 kts | 89° |
| 2026-05-06 20:32 | 42.03056 | 18.24921 | 37071 ft | 538 kts | 89° |
| 2026-05-06 20:33 | 42.03167 | 18.35000 | 37054 ft | 542 kts | 89° |
| 2026-05-06 20:33 | 42.03236 | 18.45082 | 37060 ft | 543 kts | 89° |
| 2026-05-06 20:34 | 42.03288 | 18.55244 | 37069 ft | 543 kts | 89° |
| 2026-05-06 20:34 | 42.03332 | 18.65386 | 37071 ft | 541 kts | 89° |
| 2026-05-06 20:35 | 42.03370 | 18.75491 | 37063 ft | 540 kts | 89° |
| 2026-05-06 20:35 | 42.03400 | 18.85564 | 37080 ft | 538 kts | 89° |
| 2026-05-06 20:36 | 42.03422 | 18.95615 | 37079 ft | 536 kts | 89° |
| 2026-05-06 20:36 | 42.03434 | 19.05632 | 37078 ft | 535 kts | 89° |
| 2026-05-06 20:37 | 42.03438 | 19.15650 | 37090 ft | 534 kts | 89° |
| 2026-05-06 20:37 | 42.03433 | 19.25639 | 37091 ft | 534 kts | 89° |
| 2026-05-06 20:38 | 42.03419 | 19.35622 | 37090 ft | 533 kts | 89° |
| 2026-05-06 20:38 | 42.03396 | 19.45571 | 37097 ft | 533 kts | 89° |
| 2026-05-06 20:39 | 42.03365 | 19.55543 | 37098 ft | 533 kts | 89° |
| 2026-05-06 20:39 | 42.03326 | 19.65511 | 37104 ft | 533 kts | 89° |
| 2026-05-06 20:40 | 42.03277 | 19.75493 | 37081 ft | 533 kts | 89° |
| 2026-05-06 20:40 | 42.03221 | 19.85381 | 37095 ft | 532 kts | 89° |
| 2026-05-06 20:41 | 42.03156 | 19.95343 | 37105 ft | 532 kts | 89° |
| 2026-05-06 20:41 | 42.03082 | 20.05316 | 37093 ft | 532 kts | 89° |
| 2026-05-06 20:42 | 42.02999 | 20.15273 | 37101 ft | 533 kts | 89° |
| 2026-05-06 20:42 | 42.02908 | 20.25230 | 37089 ft | 533 kts | 89° |
| 2026-05-06 20:43 | 42.02807 | 20.35200 | 37085 ft | 532 kts | 89° |
| 2026-05-06 20:43 | 42.02700 | 20.45145 | 37096 ft | 531 kts | 89° |
| 2026-05-06 20:44 | 42.02582 | 20.55083 | 37055 ft | 532 kts | 89° |
| 2026-05-06 20:44 | 42.02458 | 20.65015 | 37055 ft | 531 kts | 89° |
| 2026-05-06 20:45 | 42.02324 | 20.74929 | 37060 ft | 530 kts | 89° |
| 2026-05-06 20:45 | 42.02182 | 20.84823 | 37071 ft | 529 kts | 89° |
| 2026-05-06 20:46 | 42.02031 | 20.94708 | 37068 ft | 528 kts | 89° |
| 2026-05-06 20:46 | 42.01874 | 21.04515 | 37053 ft | 528 kts | 89° |
| 2026-05-06 20:47 | 42.01707 | 21.14398 | 37060 ft | 528 kts | 89° |
| 2026-05-06 20:47 | 42.01532 | 21.24269 | 37033 ft | 528 kts | 89° |
| 2026-05-06 20:48 | 42.01347 | 21.34155 | 37028 ft | 528 kts | 89° |
| 2026-05-06 20:48 | 42.01155 | 21.44025 | 37023 ft | 528 kts | 89° |
| 2026-05-06 20:49 | 42.00954 | 21.53914 | 37022 ft | 528 kts | 89° |
| 2026-05-06 20:49 | 42.00745 | 21.63772 | 37003 ft | 527 kts | 89° |
| 2026-05-06 20:50 | 42.00529 | 21.73562 | 37022 ft | 527 kts | 89° |
| 2026-05-06 20:50 | 42.00304 | 21.83397 | 37013 ft | 526 kts | 89° |
| 2026-05-06 20:51 | 42.00070 | 21.93228 | 37015 ft | 525 kts | 90° |
| 2026-05-06 20:51 | 41.99828 | 22.03039 | 37021 ft | 524 kts | 90° |
| 2026-05-06 20:52 | 41.99582 | 22.12712 | 37041 ft | 523 kts | 90° |
| 2026-05-06 20:52 | 41.99325 | 22.22482 | 37051 ft | 522 kts | 90° |
| 2026-05-06 20:53 | 41.99061 | 22.32238 | 37042 ft | 522 kts | 90° |
| 2026-05-06 20:53 | 41.98789 | 22.41941 | 37048 ft | 523 kts | 90° |
| 2026-05-06 20:54 | 41.98507 | 22.51704 | 37065 ft | 523 kts | 90° |
| 2026-05-06 20:54 | 41.98217 | 22.61473 | 37067 ft | 523 kts | 91° |
| 2026-05-06 20:55 | 41.97918 | 22.71242 | 37071 ft | 523 kts | 91° |
| 2026-05-06 20:55 | 41.97611 | 22.81008 | 37072 ft | 523 kts | 91° |
| 2026-05-06 20:56 | 41.97296 | 22.90775 | 37073 ft | 523 kts | 91° |
| 2026-05-06 20:56 | 41.96974 | 23.00539 | 37069 ft | 522 kts | 91° |
| 2026-05-06 20:57 | 41.96642 | 23.10295 | 37076 ft | 522 kts | 91° |
| 2026-05-06 20:57 | 41.96305 | 23.19981 | 37084 ft | 522 kts | 91° |
| 2026-05-06 20:58 | 41.95956 | 23.29779 | 37091 ft | 522 kts | 91° |
| 2026-05-06 20:58 | 41.95602 | 23.39459 | 37083 ft | 522 kts | 91° |
| 2026-05-06 20:59 | 41.95238 | 23.49195 | 37092 ft | 521 kts | 91° |
| 2026-05-06 20:59 | 41.94872 | 23.58788 | 37097 ft | 520 kts | 91° |
| 2026-05-06 21:00 | 41.94493 | 23.68487 | 37100 ft | 520 kts | 91° |
| 2026-05-06 21:00 | 41.94107 | 23.78188 | 37086 ft | 519 kts | 91° |
| 2026-05-06 21:01 | 41.93713 | 23.87869 | 37096 ft | 519 kts | 91° |
| 2026-05-06 21:01 | 41.93313 | 23.97490 | 37093 ft | 519 kts | 91° |
| 2026-05-06 21:02 | 41.92902 | 24.07186 | 37093 ft | 520 kts | 91° |
| 2026-05-06 21:02 | 41.92483 | 24.16867 | 37085 ft | 519 kts | 91° |
| 2026-05-06 21:03 | 41.92056 | 24.26556 | 37076 ft | 520 kts | 91° |
| 2026-05-06 21:03 | 41.91620 | 24.36247 | 37065 ft | 520 kts | 92° |
| 2026-05-06 21:04 | 41.91176 | 24.45940 | 37081 ft | 520 kts | 91° |
| 2026-05-06 21:04 | 41.90725 | 24.55640 | 37056 ft | 520 kts | 92° |
| 2026-05-06 21:05 | 41.90264 | 24.65315 | 37055 ft | 519 kts | 92° |
| 2026-05-06 21:05 | 41.89798 | 24.74937 | 37065 ft | 518 kts | 92° |
| 2026-05-06 21:06 | 41.89326 | 24.84577 | 37063 ft | 518 kts | 91° |
| 2026-05-06 21:06 | 41.88844 | 24.94221 | 37059 ft | 518 kts | 91° |
| 2026-05-06 21:07 | 41.88354 | 25.03873 | 37050 ft | 518 kts | 91° |
| 2026-05-06 21:07 | 41.87861 | 25.13507 | 37056 ft | 517 kts | 91° |
| 2026-05-06 21:08 | 41.87356 | 25.23139 | 37045 ft | 517 kts | 91° |
| 2026-05-06 21:08 | 41.86842 | 25.32762 | 37045 ft | 517 kts | 92° |
| 2026-05-06 21:09 | 41.86319 | 25.42387 | 37047 ft | 517 kts | 92° |
| 2026-05-06 21:09 | 41.85788 | 25.52007 | 37043 ft | 518 kts | 92° |
| 2026-05-06 21:10 | 41.85253 | 25.61573 | 37039 ft | 515 kts | 92° |
| 2026-05-06 21:10 | 41.84715 | 25.70979 | 37027 ft | 500 kts | 91° |
| 2026-05-06 21:11 | 41.84181 | 25.80255 | 37037 ft | 498 kts | 91° |
| 2026-05-06 21:11 | 41.83911 | 25.84900 | 36639 ft | 504 kts | 91° |
| 2026-05-06 21:11 | 41.83636 | 25.89644 | 35777 ft | 511 kts | 91° |
| 2026-05-06 21:11 | 41.83356 | 25.94389 | 34921 ft | 511 kts | 91° |
| 2026-05-06 21:12 | 41.83073 | 25.99150 | 34057 ft | 512 kts | 91° |
| 2026-05-06 21:12 | 41.82787 | 26.03910 | 33046 ft | 514 kts | 91° |
| 2026-05-06 21:12 | 41.82498 | 26.08695 | 32054 ft | 515 kts | 91° |
| 2026-05-06 21:12 | 41.82207 | 26.13482 | 31059 ft | 516 kts | 91° |
| 2026-05-06 21:13 | 41.81914 | 26.18265 | 30287 ft | 513 kts | 91° |
| 2026-05-06 21:13 | 41.81621 | 26.23010 | 29561 ft | 508 kts | 91° |
| 2026-05-06 21:13 | 41.81332 | 26.27651 | 29392 ft | 492 kts | 91° |
| 2026-05-06 21:13 | 41.81049 | 26.32163 | 29160 ft | 479 kts | 91° |
| 2026-05-06 21:14 | 41.80724 | 26.36499 | 28952 ft | 468 kts | 96° |
| 2026-05-06 21:14 | 41.79855 | 26.40682 | 28576 ft | 465 kts | 108° |
| 2026-05-06 21:14 | 41.78635 | 26.44656 | 28238 ft | 457 kts | 110° |
| 2026-05-06 21:14 | 41.77298 | 26.48497 | 27856 ft | 454 kts | 115° |
| 2026-05-06 21:15 | 41.75818 | 26.52225 | 27506 ft | 452 kts | 116° |
| 2026-05-06 21:15 | 41.74295 | 26.55904 | 27228 ft | 449 kts | 117° |
| 2026-05-06 21:15 | 41.72772 | 26.59540 | 26976 ft | 446 kts | 117° |
| 2026-05-06 21:15 | 41.71260 | 26.63159 | 26701 ft | 444 kts | 116° |
| 2026-05-06 21:16 | 41.69766 | 26.66759 | 26410 ft | 441 kts | 116° |
| 2026-05-06 21:16 | 41.68287 | 26.70346 | 26125 ft | 439 kts | 116° |
| 2026-05-06 21:16 | 41.66823 | 26.73915 | 25853 ft | 437 kts | 116° |
| 2026-05-06 21:16 | 41.65857 | 26.76271 | 25664 ft | 435 kts | 116° |
| 2026-05-06 21:17 | 41.64407 | 26.79812 | 25398 ft | 433 kts | 116° |
| 2026-05-06 21:17 | 41.62478 | 26.84518 | 25040 ft | 430 kts | 116° |
| 2026-05-06 21:17 | 41.61526 | 26.86840 | 24868 ft | 428 kts | 116° |
| 2026-05-06 21:17 | 41.60098 | 26.90317 | 24617 ft | 426 kts | 116° |
| 2026-05-06 21:18 | 41.58674 | 26.93778 | 24281 ft | 424 kts | 116° |
| 2026-05-06 21:18 | 41.57256 | 26.97223 | 23848 ft | 421 kts | 116° |
| 2026-05-06 21:18 | 41.55848 | 27.00637 | 23364 ft | 419 kts | 116° |
| 2026-05-06 21:18 | 41.54446 | 27.04034 | 22864 ft | 416 kts | 116° |
| 2026-05-06 21:19 | 41.53050 | 27.07411 | 22388 ft | 413 kts | 116° |
| 2026-05-06 21:19 | 41.51667 | 27.10754 | 21935 ft | 410 kts | 116° |
| 2026-05-06 21:19 | 41.50293 | 27.14069 | 21488 ft | 407 kts | 116° |
| 2026-05-06 21:19 | 41.48928 | 27.17361 | 21036 ft | 404 kts | 116° |
| 2026-05-06 21:20 | 41.47570 | 27.20630 | 20596 ft | 401 kts | 116° |
| 2026-05-06 21:20 | 41.46222 | 27.23874 | 20170 ft | 398 kts | 116° |
| 2026-05-06 21:20 | 41.44886 | 27.27080 | 19785 ft | 395 kts | 116° |
| 2026-05-06 21:20 | 41.43553 | 27.30275 | 19348 ft | 393 kts | 116° |
| 2026-05-06 21:21 | 41.42229 | 27.33447 | 18926 ft | 391 kts | 116° |
| 2026-05-06 21:21 | 41.40913 | 27.36597 | 18498 ft | 389 kts | 116° |
| 2026-05-06 21:21 | 41.39600 | 27.39740 | 18010 ft | 388 kts | 116° |
| 2026-05-06 21:21 | 41.38292 | 27.42868 | 17529 ft | 386 kts | 116° |
| 2026-05-06 21:22 | 41.37003 | 27.45946 | 17079 ft | 383 kts | 116° |
| 2026-05-06 21:22 | 41.35693 | 27.49072 | 16635 ft | 380 kts | 116° |
| 2026-05-06 21:22 | 41.34424 | 27.52096 | 16186 ft | 378 kts | 116° |
| 2026-05-06 21:22 | 41.33147 | 27.55136 | 15767 ft | 375 kts | 116° |
| 2026-05-06 21:23 | 41.31878 | 27.58156 | 15353 ft | 373 kts | 116° |
| 2026-05-06 21:23 | 41.30617 | 27.61153 | 14895 ft | 370 kts | 116° |
| 2026-05-06 21:23 | 41.29360 | 27.64138 | 14485 ft | 368 kts | 116° |
| 2026-05-06 21:23 | 41.28110 | 27.67103 | 14053 ft | 367 kts | 117° |
| 2026-05-06 21:24 | 41.26863 | 27.70057 | 13592 ft | 365 kts | 117° |
| 2026-05-06 21:24 | 41.25625 | 27.72988 | 13129 ft | 363 kts | 117° |
| 2026-05-06 21:24 | 41.24391 | 27.75908 | 12689 ft | 361 kts | 117° |
| 2026-05-06 21:24 | 41.23165 | 27.78802 | 12260 ft | 359 kts | 117° |
| 2026-05-06 21:25 | 41.21949 | 27.81675 | 11840 ft | 356 kts | 117° |
| 2026-05-06 21:25 | 41.20730 | 27.84549 | 11354 ft | 356 kts | 117° |
| 2026-05-06 21:25 | 41.19515 | 27.87411 | 10917 ft | 355 kts | 117° |
| 2026-05-06 21:25 | 41.18305 | 27.90258 | 10535 ft | 352 kts | 117° |
| 2026-05-06 21:26 | 41.17115 | 27.93053 | 10386 ft | 342 kts | 117° |
| 2026-05-06 21:26 | 41.15960 | 27.95762 | 10224 ft | 333 kts | 117° |
| 2026-05-06 21:26 | 41.14857 | 27.98349 | 10069 ft | 311 kts | 117° |
| 2026-05-06 21:26 | 41.13821 | 28.00772 | 9859 ft | 293 kts | 117° |
| 2026-05-06 21:27 | 41.12834 | 28.03085 | 9539 ft | 283 kts | 116° |
| 2026-05-06 21:27 | 41.11879 | 28.05322 | 9208 ft | 278 kts | 116° |
| 2026-05-06 21:27 | 41.10939 | 28.07528 | 8893 ft | 280 kts | 116° |
| 2026-05-06 21:27 | 41.09975 | 28.09790 | 8575 ft | 284 kts | 117° |
| 2026-05-06 21:28 | 41.08995 | 28.12080 | 8261 ft | 286 kts | 117° |
| 2026-05-06 21:28 | 41.08011 | 28.14383 | 7949 ft | 287 kts | 117° |
| 2026-05-06 21:28 | 41.07027 | 28.16679 | 7616 ft | 287 kts | 117° |
| 2026-05-06 21:28 | 41.06039 | 28.18981 | 7287 ft | 287 kts | 117° |
| 2026-05-06 21:29 | 41.05050 | 28.21282 | 6977 ft | 287 kts | 117° |
| 2026-05-06 21:29 | 41.04063 | 28.23581 | 6643 ft | 287 kts | 117° |
| 2026-05-06 21:29 | 41.03076 | 28.25878 | 6311 ft | 287 kts | 117° |
| 2026-05-06 21:29 | 41.02089 | 28.28175 | 5970 ft | 287 kts | 118° |
| 2026-05-06 21:30 | 41.01101 | 28.30472 | 5639 ft | 287 kts | 118° |
| 2026-05-06 21:30 | 41.00125 | 28.32734 | 5505 ft | 277 kts | 118° |
| 2026-05-06 21:30 | 40.99203 | 28.34871 | 5350 ft | 258 kts | 119° |
| 2026-05-06 21:30 | 40.98340 | 28.36868 | 5197 ft | 246 kts | 119° |
| 2026-05-06 21:31 | 40.97614 | 28.38871 | 4918 ft | 237 kts | 99° |
| 2026-05-06 21:31 | 40.97545 | 28.40995 | 4771 ft | 231 kts | 86° |
| 2026-05-06 21:31 | 40.97561 | 28.43145 | 4571 ft | 236 kts | 88° |
| 2026-05-06 21:31 | 40.97559 | 28.45313 | 4358 ft | 234 kts | 89° |
| 2026-05-06 21:32 | 40.97555 | 28.47446 | 4150 ft | 229 kts | 89° |
| 2026-05-06 21:32 | 40.97278 | 28.51502 | 3754 ft | 218 kts | 103° |
| 2026-05-06 21:32 | 40.96936 | 28.53474 | 3574 ft | 217 kts | 103° |
| 2026-05-06 21:33 | 40.96607 | 28.55415 | 3407 ft | 220 kts | 103° |
| 2026-05-06 21:33 | 40.96277 | 28.57406 | 3201 ft | 221 kts | 102° |
| 2026-05-06 21:33 | 40.95953 | 28.59382 | 3069 ft | 215 kts | 100° |
| 2026-05-06 21:33 | 40.95872 | 28.61324 | 3019 ft | 211 kts | 88° |
| 2026-05-06 21:34 | 40.95918 | 28.63277 | 2988 ft | 210 kts | 88° |
| 2026-05-06 21:34 | 40.95959 | 28.65173 | 3006 ft | 207 kts | 88° |
| 2026-05-06 21:34 | 40.96049 | 28.67074 | 3037 ft | 209 kts | 76° |
| 2026-05-06 21:34 | 40.96770 | 28.68678 | 3026 ft | 202 kts | 37° |
| 2026-05-06 21:35 | 40.97980 | 28.69650 | 3001 ft | 205 kts | 26° |
| 2026-05-06 21:35 | 40.99230 | 28.70564 | 3002 ft | 204 kts | 27° |
| 2026-05-06 21:35 | 41.00491 | 28.71229 | 2981 ft | 191 kts | 2° |
| 2026-05-06 21:35 | 41.01796 | 28.71217 | 3019 ft | 188 kts | 356° |
| 2026-05-06 21:36 | 41.03112 | 28.71194 | 2995 ft | 189 kts | 357° |
| 2026-05-06 21:36 | 41.04426 | 28.71173 | 3001 ft | 189 kts | 357° |
| 2026-05-06 21:36 | 41.05734 | 28.71150 | 2996 ft | 187 kts | 357° |
| 2026-05-06 21:36 | 41.07020 | 28.71127 | 2995 ft | 188 kts | 356° |
| 2026-05-06 21:37 | 41.08311 | 28.71103 | 2975 ft | 179 kts | 356° |
| 2026-05-06 21:37 | 41.09539 | 28.71075 | 3006 ft | 176 kts | 356° |
| 2026-05-06 21:37 | 41.10734 | 28.71054 | 3001 ft | 166 kts | 356° |
| 2026-05-06 21:37 | 41.11853 | 28.71033 | 2969 ft | 156 kts | 356° |
| 2026-05-06 21:38 | 41.12943 | 28.71010 | 3033 ft | 159 kts | 356° |
| 2026-05-06 21:38 | 41.14085 | 28.70987 | 2807 ft | 165 kts | 356° |
| 2026-05-06 21:38 | 41.15197 | 28.70964 | 2560 ft | 159 kts | 356° |
| 2026-05-06 21:38 | 41.16281 | 28.70940 | 2394 ft | 156 kts | 357° |
| 2026-05-06 21:39 | 41.17390 | 28.70920 | 2173 ft | 157 kts | 358° |
| 2026-05-06 21:39 | 41.18469 | 28.70901 | 1941 ft | 156 kts | 358° |
| 2026-05-06 21:39 | 41.19566 | 28.70879 | 1739 ft | 155 kts | 358° |
| 2026-05-06 21:39 | 41.20644 | 28.70858 | 1529 ft | 155 kts | 358° |
| 2026-05-06 21:40 | 41.21706 | 28.70837 | 1322 ft | 154 kts | 359° |
| 2026-05-06 21:40 | 41.22775 | 28.70814 | 1100 ft | 153 kts | 360° |
| 2026-05-06 21:40 | 41.23844 | 28.70793 | 896 ft | 153 kts | 0° |
| 2026-05-06 21:40 | 41.24910 | 28.70769 | 690 ft | 154 kts | 1° |
| 2026-05-06 21:41 | 41.25977 | 28.70748 | 485 ft | 154 kts | 1° |
| 2026-05-06 21:41 | 41.27044 | 28.70731 | 337 ft | 146 kts | 1° |
| 2026-05-06 21:41 | 41.27939 | 28.70716 | 336 ft | 107 kts | 359° |
| 2026-05-06 21:41 | 41.28405 | 28.70707 | 336 ft | 30 kts | 359° |
| 2026-05-06 21:42 | 41.28601 | 28.70770 | 335 ft | 23 kts | 26° |
| 2026-05-06 21:42 | 41.28623 | 28.70785 | 336 ft | 0 kts | 29° |
| 2026-05-06 21:44 | 41.28662 | 28.70814 | 336 ft | 16 kts | 29° |
| 2026-05-06 21:44 | 41.28762 | 28.70887 | 335 ft | 16 kts | 29° |
| 2026-05-06 21:44 | 41.28856 | 28.70957 | 336 ft | 16 kts | 29° |
| 2026-05-06 21:45 | 41.28950 | 28.71025 | 335 ft | 15 kts | 27° |
| 2026-05-06 21:45 | 41.29018 | 28.71112 | 334 ft | 14 kts | 82° |
| 2026-05-06 21:45 | 41.28976 | 28.71157 | 336 ft | 9 kts | 175° |
| 2026-05-06 21:45 | 41.28855 | 28.71161 | 334 ft | 24 kts | 179° |
| 2026-05-06 21:46 | 41.28686 | 28.71165 | 335 ft | 24 kts | 179° |
| 2026-05-06 21:46 | 41.28517 | 28.71168 | 335 ft | 24 kts | 179° |
| 2026-05-06 21:46 | 41.28350 | 28.71173 | 335 ft | 23 kts | 179° |
| 2026-05-06 21:46 | 41.28188 | 28.71177 | 336 ft | 23 kts | 179° |
| 2026-05-06 21:47 | 41.28024 | 28.71180 | 335 ft | 23 kts | 179° |
| 2026-05-06 21:47 | 41.27862 | 28.71184 | 334 ft | 23 kts | 179° |
| 2026-05-06 21:47 | 41.27699 | 28.71187 | 335 ft | 23 kts | 179° |
| 2026-05-06 21:47 | 41.27536 | 28.71192 | 335 ft | 23 kts | 179° |
| 2026-05-06 21:48 | 41.27374 | 28.71196 | 335 ft | 23 kts | 179° |
| 2026-05-06 21:48 | 41.27211 | 28.71200 | 334 ft | 23 kts | 179° |
| 2026-05-06 21:48 | 41.27048 | 28.71202 | 333 ft | 23 kts | 179° |
| 2026-05-06 21:48 | 41.26885 | 28.71207 | 334 ft | 23 kts | 179° |
| 2026-05-06 21:49 | 41.26767 | 28.71210 | 336 ft | 15 kts | 179° |
| 2026-05-06 21:49 | 41.26662 | 28.71211 | 335 ft | 15 kts | 179° |
| 2026-05-06 21:49 | 41.26564 | 28.71213 | 337 ft | 13 kts | 179° |
| 2026-05-06 21:49 | 41.26508 | 28.71292 | 335 ft | 13 kts | 92° |
| 2026-05-06 21:50 | 41.26509 | 28.71415 | 335 ft | 13 kts | 90° |
| 2026-05-06 21:50 | 41.26511 | 28.71584 | 335 ft | 21 kts | 88° |
| 2026-05-06 21:50 | 41.26514 | 28.71774 | 335 ft | 21 kts | 89° |
| 2026-05-06 21:50 | 41.26516 | 28.71965 | 339 ft | 21 kts | 89° |
| 2026-05-06 21:51 | 41.26519 | 28.72142 | 339 ft | 15 kts | 89° |
| 2026-05-06 21:51 | 41.26528 | 28.72281 | 336 ft | 15 kts | 78° |
| 2026-05-06 21:51 | 41.26562 | 28.72416 | 335 ft | 15 kts | 70° |
| 2026-05-06 21:51 | 41.26590 | 28.72553 | 336 ft | 15 kts | 79° |
| 2026-05-06 21:52 | 41.26593 | 28.72694 | 336 ft | 15 kts | 91° |
| 2026-05-06 21:52 | 41.26593 | 28.72837 | 339 ft | 15 kts | 90° |
| 2026-05-06 21:52 | 41.26616 | 28.72968 | 334 ft | 15 kts | 43° |
| 2026-05-06 21:52 | 41.26719 | 28.72993 | 338 ft | 15 kts | 359° |
| 2026-05-06 21:53 | 41.26826 | 28.72990 | 335 ft | 15 kts | 359° |
| 2026-05-06 21:53 | 41.26926 | 28.72995 | 336 ft | 0 kts | 17° |
| 2026-05-06 21:53 | 41.26953 | 28.73041 | 335 ft | 12 kts | 76° |
| 2026-05-06 21:53 | 41.26953 | 28.73084 | 336 ft | 0 kts | 90° |
| 2026-05-06 21:54 | 41.26954 | 28.73140 | 339 ft | 18 kts | 90° |
| 2026-05-06 21:54 | 41.26956 | 28.73349 | 335 ft | 27 kts | 89° |
| 2026-05-06 21:55 | 41.26960 | 28.73604 | 337 ft | 30 kts | 88° |
| 2026-05-06 21:55 | 41.26964 | 28.73903 | 339 ft | 37 kts | 89° |
| 2026-05-06 21:55 | 41.26968 | 28.74177 | 339 ft | 20 kts | 89° |
| 2026-05-06 21:55 | 41.26971 | 28.74353 | 339 ft | 18 kts | 89° |
| 2026-05-06 21:56 | 41.26934 | 28.74454 | 335 ft | 7 kts | 164° |
| 2026-05-06 21:56 | 41.26882 | 28.74464 | 335 ft | 8 kts | 175° |
| 2026-05-06 21:56 | 41.26824 | 28.74467 | 336 ft | 9 kts | 179° |
| 2026-05-06 21:56 | 41.26766 | 28.74455 | 333 ft | 9 kts | 210° |
| 2026-05-06 21:57 | 41.26742 | 28.74396 | 333 ft | 8 kts | 260° |
| 2026-05-06 21:57 | 41.26740 | 28.74372 | 335 ft | 0 kts | 265° |